createdAt,value
2018-02-12T00:00:10.345Z,84.80
2018-02-12T00:02:36.645Z,84.70
2018-02-12T00:05:03.577Z,84.60
2018-02-12T00:07:30.189Z,85.10
2018-02-12T00:09:58.168Z,87.00
2018-02-12T00:12:26.182Z,86.10
2018-02-12T00:14:52.434Z,86.10
2018-02-12T00:17:18.848Z,86.90
2018-02-12T00:19:45.070Z,86.30
2018-02-12T00:22:12.605Z,86.30
2018-02-12T00:24:39.722Z,86.50
2018-02-12T00:27:07.700Z,86.50
2018-02-12T00:29:34.071Z,86.50
2018-02-12T00:32:00.937Z,86.50
2018-02-12T00:34:28.046Z,86.20
2018-02-12T00:36:55.329Z,86.10
2018-02-12T00:39:22.971Z,86.30
2018-02-12T00:41:49.179Z,86.30
2018-02-12T00:44:15.635Z,86.30
2018-02-12T00:46:41.871Z,86.00
2018-02-12T00:49:08.610Z,85.80
2018-02-12T00:51:35.549Z,86.40
2018-02-12T00:54:02.538Z,86.00
2018-02-12T00:56:28.785Z,85.90
2018-02-12T00:58:56.353Z,87.50
2018-02-12T01:01:22.875Z,87.50
2018-02-12T01:03:50.786Z,86.30
2018-02-12T01:06:17.215Z,86.30
2018-02-12T01:08:44.378Z,86.80
2018-02-12T01:11:10.579Z,86.80
2018-02-12T01:13:36.819Z,86.50
2018-02-12T01:16:03.441Z,87.20
2018-02-12T01:18:30.687Z,87.60
2018-02-12T01:20:57.491Z,87.70
2018-02-12T01:23:24.810Z,87.00
2018-02-12T01:25:51.315Z,86.90
2018-02-12T01:28:17.550Z,86.90
2018-02-12T01:30:43.924Z,87.10
2018-02-12T01:33:10.816Z,88.30
2018-02-12T01:35:37.609Z,87.60
2018-02-12T01:38:04.351Z,89.20
2018-02-12T01:40:31.888Z,87.80
2018-02-12T01:42:58.131Z,87.60
2018-02-12T01:45:24.937Z,90.00
2018-02-12T01:47:52.171Z,90.70
2018-02-12T01:50:19.132Z,90.80
2018-02-12T01:52:46.402Z,90.00
2018-02-12T01:55:12.961Z,89.80
2018-02-12T01:57:40.359Z,88.90
2018-02-12T02:00:06.620Z,90.20
2018-02-12T02:02:34.024Z,90.30
2018-02-12T02:05:00.236Z,89.20
2018-02-12T02:07:26.614Z,89.10
2018-02-12T02:09:54.239Z,88.70
2018-02-12T02:12:20.686Z,89.30
2018-02-12T02:14:47.694Z,89.30
2018-02-12T02:17:14.011Z,88.60
2018-02-12T02:19:41.739Z,88.90
2018-02-12T02:22:08.065Z,88.40
2018-02-12T02:24:34.820Z,89.40
2018-02-12T02:27:01.767Z,88.70
2018-02-12T02:29:29.095Z,88.20
2018-02-12T02:31:56.600Z,88.30
2018-02-12T02:34:25.089Z,88.30
2018-02-12T02:36:51.718Z,88.40
2018-02-12T02:39:19.194Z,89.00
2018-02-12T02:41:46.795Z,88.70
2018-02-12T02:44:12.999Z,88.70
2018-02-12T02:46:39.743Z,88.40
2018-02-12T02:49:07.242Z,87.90
2018-02-12T02:51:33.471Z,87.90
2018-02-12T02:53:59.938Z,87.70
2018-02-12T02:56:27.210Z,87.50
2018-02-12T02:58:53.892Z,87.40
2018-02-12T03:01:20.133Z,87.90
2018-02-12T03:03:46.848Z,87.20
2018-02-12T03:06:13.354Z,87.60
2018-02-12T03:08:40.834Z,87.30
2018-02-12T03:11:07.043Z,87.40
2018-02-12T03:13:33.958Z,87.20
2018-02-12T03:16:00.183Z,87.10
2018-02-12T03:18:26.659Z,87.30
2018-02-12T03:20:54.488Z,88.00
2018-02-12T03:23:20.742Z,87.80
2018-02-12T03:25:47.749Z,87.30
2018-02-12T03:28:13.966Z,87.30
2018-02-12T03:30:40.237Z,87.60
2018-02-12T03:33:07.197Z,87.80
2018-02-12T03:35:34.455Z,87.20
2018-02-12T03:38:01.507Z,87.10
2018-02-12T03:40:28.329Z,86.90
2018-02-12T03:42:55.696Z,87.30
2018-02-12T03:45:23.511Z,87.20
2018-02-12T03:47:49.707Z,87.20
2018-02-12T03:50:16.345Z,87.20
2018-02-12T03:52:42.767Z,87.30
2018-02-12T03:55:09.674Z,87.30
2018-02-12T03:57:36.251Z,87.50
2018-02-12T04:00:03.306Z,87.20
2018-02-12T04:02:29.887Z,87.20
2018-02-12T04:04:56.190Z,87.30
2018-02-12T04:07:22.409Z,87.10
2018-02-12T04:09:48.690Z,86.80
2018-02-12T04:12:16.298Z,86.90
2018-02-12T04:14:42.994Z,86.80
2018-02-12T04:17:11.610Z,86.80
2018-02-12T04:19:38.370Z,86.70
2018-02-12T04:22:04.682Z,86.80
2018-02-12T04:24:30.898Z,86.70
2018-02-12T04:26:57.403Z,86.50
2018-02-12T04:29:24.109Z,86.60
2018-02-12T04:31:50.546Z,86.80
2018-02-12T04:34:16.835Z,86.80
2018-02-12T04:36:43.721Z,86.80
2018-02-12T04:39:10.264Z,87.10
2018-02-12T04:41:37.525Z,87.50
2018-02-12T04:44:04.549Z,86.90
2018-02-12T04:46:31.105Z,86.90
2018-02-12T04:48:58.184Z,86.40
2018-02-12T04:51:24.465Z,86.30
2018-02-12T04:53:51.294Z,86.30
2018-02-12T04:56:17.804Z,86.30
2018-02-12T04:58:45.289Z,86.30
2018-02-12T05:01:13.212Z,86.50
2018-02-12T05:03:40.170Z,86.50
2018-02-12T05:06:06.375Z,86.50
2018-02-12T05:08:33.326Z,86.50
2018-02-12T05:11:00.103Z,86.50
2018-02-12T05:13:26.848Z,86.70
2018-02-12T05:15:53.044Z,88.70
2018-02-12T05:18:19.823Z,88.10
2018-02-12T05:20:46.723Z,87.80
2018-02-12T05:23:12.971Z,87.30
2018-02-12T05:25:40.187Z,87.20
2018-02-12T05:28:07.089Z,87.20
2018-02-12T05:30:33.366Z,87.30
2018-02-12T05:33:00.234Z,87.20
2018-02-12T05:35:26.444Z,87.00
2018-02-12T05:37:52.668Z,86.70
2018-02-12T05:40:19.015Z,87.20
2018-02-12T05:42:45.950Z,87.00
2018-02-12T05:45:13.197Z,86.90
2018-02-12T05:47:40.214Z,87.20
2018-02-12T05:50:06.836Z,87.10
2018-02-12T05:52:33.721Z,87.50
2018-02-12T05:55:00.728Z,87.50
2018-02-12T05:57:27.794Z,88.00
2018-02-12T05:59:54.023Z,88.00
2018-02-12T06:02:20.785Z,88.20
2018-02-12T06:04:48.038Z,89.70
2018-02-12T06:07:14.242Z,89.70
2018-02-12T06:09:40.776Z,90.00
2018-02-12T06:12:07.801Z,90.10
2018-02-12T06:14:35.249Z,90.00
2018-02-12T06:17:02.414Z,90.20
2018-02-12T06:19:29.629Z,90.20
2018-02-12T06:21:55.864Z,90.10
2018-02-12T06:24:22.214Z,90.70
2018-02-12T06:26:48.701Z,90.20
2018-02-12T06:29:16.642Z,90.40
2018-02-12T06:31:43.354Z,90.30
2018-02-12T06:34:09.658Z,89.90
2018-02-12T06:36:35.893Z,90.00
2018-02-12T06:39:02.625Z,90.20
2018-02-12T06:41:29.265Z,90.10
2018-02-12T06:43:56.606Z,90.50
2018-02-12T06:46:22.954Z,90.90
2018-02-12T06:48:49.687Z,91.20
2018-02-12T06:51:18.703Z,91.00
2018-02-12T06:53:45.632Z,91.70
2018-02-12T06:56:11.943Z,91.10
2018-02-12T06:58:38.241Z,91.50
2018-02-12T07:01:05.278Z,91.40
2018-02-12T07:03:32.913Z,91.30
2018-02-12T07:05:59.358Z,91.60
2018-02-12T07:08:26.272Z,91.80
2018-02-12T07:10:53.395Z,91.70
2018-02-12T07:13:19.708Z,91.80
2018-02-12T07:15:46.659Z,92.00
2018-02-12T07:18:12.923Z,91.70
2018-02-12T07:20:41.452Z,91.60
2018-02-12T07:23:08.996Z,91.30
2018-02-12T07:25:36.866Z,91.20
2018-02-12T07:28:04.299Z,91.10
2018-02-12T07:30:30.612Z,91.30
2018-02-12T07:32:57.540Z,91.30
2018-02-12T07:35:24.177Z,91.50
2018-02-12T07:37:50.387Z,91.60
2018-02-12T07:40:17.407Z,91.50
2018-02-12T07:42:43.621Z,91.50
2018-02-12T07:45:10.423Z,91.60
2018-02-12T07:47:37.695Z,91.80
2018-02-12T07:50:04.887Z,91.90
2018-02-12T07:52:31.110Z,92.00
2018-02-12T07:54:57.944Z,91.80
2018-02-12T07:57:25.658Z,92.00
2018-02-12T07:59:52.013Z,91.60
2018-02-12T08:02:18.267Z,91.20
2018-02-12T08:04:44.602Z,91.20
2018-02-12T08:07:11.456Z,91.20
2018-02-12T08:09:37.713Z,91.30
2018-02-12T08:12:04.049Z,91.50
2018-02-12T08:14:31.261Z,91.60
2018-02-12T08:16:58.611Z,91.70
2018-02-12T08:19:24.809Z,91.60
2018-02-12T08:21:51.038Z,91.60
2018-02-12T08:24:17.899Z,91.50
2018-02-12T08:26:44.683Z,91.50
2018-02-12T08:29:11.249Z,91.50
2018-02-12T08:31:38.025Z,91.40
2018-02-12T08:34:04.547Z,90.80
2018-02-12T08:36:32.238Z,91.30
2018-02-12T08:38:58.486Z,91.30
2018-02-12T08:41:24.763Z,91.10
2018-02-12T08:43:51.236Z,90.80
2018-02-12T08:46:17.641Z,90.90
2018-02-12T08:48:43.880Z,90.70
2018-02-12T08:51:10.833Z,90.40
2018-02-12T08:53:37.676Z,90.40
2018-02-12T08:56:04.299Z,90.30
2018-02-12T08:58:30.575Z,90.30
2018-02-12T09:00:56.805Z,90.00
2018-02-12T09:03:23.044Z,90.30
2018-02-12T09:05:49.715Z,90.20
2018-02-12T09:08:16.755Z,90.10
2018-02-12T09:10:42.948Z,90.10
2018-02-12T09:13:09.816Z,90.10
2018-02-12T09:15:43.972Z,89.50
2018-02-12T09:18:10.601Z,90.00
2018-02-12T09:20:38.190Z,87.70
2018-02-12T09:23:05.463Z,88.40
2018-02-12T09:25:32.032Z,88.30
2018-02-12T09:27:59.047Z,86.40
2018-02-12T09:30:25.435Z,86.50
2018-02-12T09:32:52.400Z,84.80
2018-02-12T09:35:20.093Z,84.80
2018-02-12T09:37:46.540Z,85.80
2018-02-12T09:40:14.036Z,85.00
2018-02-12T09:42:41.274Z,84.00
2018-02-12T09:45:08.450Z,83.80
2018-02-12T09:47:36.459Z,84.00
2018-02-12T09:50:02.836Z,83.90
2018-02-12T09:52:29.955Z,83.10
2018-02-12T09:54:56.153Z,83.00
2018-02-12T09:57:22.351Z,83.00
2018-02-12T09:59:49.207Z,83.20
2018-02-12T10:02:16.280Z,80.80
2018-02-12T10:04:42.502Z,80.70
2018-02-12T10:07:09.763Z,78.60
2018-02-12T10:09:36.392Z,79.50
2018-02-12T10:12:03.401Z,79.20
2018-02-12T10:14:29.574Z,79.20
2018-02-12T10:16:55.834Z,79.40
2018-02-12T10:19:22.816Z,79.60
2018-02-12T10:21:49.543Z,79.40
2018-02-12T10:24:15.751Z,77.60
2018-02-12T10:26:42.778Z,78.80
2018-02-12T10:29:09.150Z,78.80
2018-02-12T10:31:35.344Z,77.40
2018-02-12T10:34:02.876Z,76.10
2018-02-12T10:36:29.754Z,76.80
2018-02-12T10:38:57.291Z,74.60
2018-02-12T10:41:23.726Z,74.70
2018-02-12T10:43:49.926Z,76.10
2018-02-12T10:46:16.581Z,77.20
2018-02-12T10:48:42.762Z,72.50
2018-02-12T10:51:08.952Z,72.50
2018-02-12T10:53:35.335Z,70.60
2018-02-12T10:56:01.542Z,71.00
2018-02-12T10:58:27.762Z,69.00
2018-02-12T11:00:55.214Z,71.50
2018-02-12T11:03:22.252Z,71.00
2018-02-12T11:05:49.874Z,70.50
2018-02-12T11:08:16.474Z,70.40
2018-02-12T11:10:42.702Z,71.20
2018-02-12T11:13:09.547Z,68.00
2018-02-12T11:15:36.159Z,67.80
2018-02-12T11:18:03.115Z,66.00
2018-02-12T11:20:30.108Z,67.30
2018-02-12T11:22:57.374Z,67.30
2018-02-12T11:25:23.915Z,69.00
2018-02-12T11:27:50.915Z,67.90
2018-02-12T11:30:17.294Z,67.80
2018-02-12T11:32:43.613Z,70.40
2018-02-12T11:35:09.806Z,70.10
2018-02-12T11:37:36.735Z,69.20
2018-02-12T11:40:02.960Z,70.50
2018-02-12T11:42:30.560Z,71.20
2018-02-12T11:44:56.822Z,72.20
2018-02-12T11:47:22.984Z,71.40
2018-02-12T11:49:49.204Z,71.90
2018-02-12T11:52:19.125Z,71.40
2018-02-12T11:54:45.358Z,71.30
2018-02-12T11:57:11.574Z,70.00
2018-02-12T11:59:38.946Z,69.60
2018-02-12T12:02:05.163Z,71.00
2018-02-12T12:04:31.953Z,70.40
2018-02-12T12:06:58.150Z,69.50
2018-02-12T12:09:24.596Z,69.70
2018-02-12T12:11:51.357Z,69.50
2018-02-12T12:14:17.885Z,70.10
2018-02-12T12:16:44.992Z,70.80
2018-02-12T12:19:12.151Z,70.80
2018-02-12T12:21:39.668Z,71.00
2018-02-12T12:24:05.955Z,71.00
2018-02-12T12:26:32.665Z,70.90
2018-02-12T12:28:59.278Z,70.90
2018-02-12T12:31:26.249Z,70.10
2018-02-12T12:33:53.327Z,70.20
2018-02-12T12:36:20.323Z,69.30
2018-02-12T12:38:47.732Z,68.30
2018-02-12T12:41:14.730Z,69.30
2018-02-12T12:43:40.927Z,69.20
2018-02-12T12:46:07.727Z,71.10
2018-02-12T12:48:34.766Z,71.00
2018-02-12T12:51:01.052Z,71.00
2018-02-12T12:53:28.006Z,69.40
2018-02-12T12:55:54.937Z,70.20
2018-02-12T12:58:21.147Z,70.20
2018-02-12T13:00:47.374Z,69.30
2018-02-12T13:03:14.506Z,67.60
2018-02-12T13:05:40.898Z,68.50
2018-02-12T13:08:08.425Z,68.00
2018-02-12T13:10:34.793Z,68.10
2018-02-12T13:13:01.656Z,68.30
2018-02-12T13:15:28.677Z,70.00
2018-02-12T13:17:55.504Z,69.00
2018-02-12T13:20:23.484Z,69.40
2018-02-12T13:22:51.438Z,67.50
2018-02-12T13:25:19.093Z,67.90
2018-02-12T13:27:45.632Z,67.90
2018-02-12T13:30:12.608Z,64.50
2018-02-12T13:32:38.962Z,64.50
2018-02-12T13:35:06.299Z,66.00
2018-02-12T13:37:33.595Z,67.40
2018-02-12T13:40:01.141Z,65.50
2018-02-12T13:42:28.140Z,65.00
2018-02-12T13:44:54.335Z,64.90
2018-02-12T13:47:21.008Z,65.20
2018-02-12T13:49:47.889Z,64.30
2018-02-12T13:52:14.655Z,63.80
2018-02-12T13:54:41.398Z,64.50
2018-02-12T13:57:07.906Z,66.40
2018-02-12T13:59:34.910Z,67.10
2018-02-12T14:02:01.702Z,67.10
2018-02-12T14:04:29.067Z,68.90
2018-02-12T14:06:55.934Z,68.90
2018-02-12T14:09:24.430Z,66.50
2018-02-12T14:11:50.606Z,66.50
2018-02-12T14:14:17.435Z,65.30
2018-02-12T14:16:43.959Z,67.60
2018-02-12T14:19:10.692Z,66.80
2018-02-12T14:21:36.896Z,68.10
2018-02-12T14:24:03.142Z,68.20
2018-02-12T14:26:30.656Z,68.90
2018-02-12T14:28:58.217Z,71.80
2018-02-12T14:31:24.430Z,71.80
2018-02-12T14:33:51.320Z,73.10
2018-02-12T14:36:17.565Z,74.80
2018-02-12T14:38:44.303Z,77.10
2018-02-12T14:41:10.716Z,77.80
2018-02-12T14:43:38.214Z,78.50
2018-02-12T14:46:04.884Z,79.60
2018-02-12T14:48:31.169Z,80.70
2018-02-12T14:50:57.382Z,80.60
2018-02-12T14:53:23.617Z,82.00
2018-02-12T14:55:50.325Z,81.40
2018-02-12T14:58:16.755Z,81.00
2018-02-12T15:00:43.733Z,79.80
2018-02-12T15:03:10.023Z,79.80
2018-02-12T15:05:37.014Z,79.90
2018-02-12T15:08:03.976Z,79.70
2018-02-12T15:10:30.510Z,79.80
2018-02-12T15:12:58.363Z,79.60
2018-02-12T15:15:24.862Z,79.60
2018-02-12T15:17:51.806Z,79.40
2018-02-12T15:20:19.344Z,80.00
2018-02-12T15:22:45.584Z,80.00
2018-02-12T15:25:12.553Z,80.70
2018-02-12T15:27:39.445Z,80.70
2018-02-12T15:30:05.660Z,80.70
2018-02-12T15:32:31.971Z,80.10
2018-02-12T15:34:58.479Z,79.20
2018-02-12T15:37:24.805Z,78.40
2018-02-12T15:39:51.511Z,77.70
2018-02-12T15:42:18.521Z,76.90
2018-02-12T15:44:44.778Z,76.90
2018-02-12T15:47:11.536Z,77.50
2018-02-12T15:49:39.560Z,77.40
2018-02-12T15:52:06.342Z,77.40
2018-02-12T15:54:32.553Z,77.00
2018-02-12T15:56:58.779Z,76.60
2018-02-12T15:59:25.878Z,76.50
2018-02-12T16:01:53.000Z,76.70
2018-02-12T16:04:19.984Z,76.60
2018-02-12T16:06:46.331Z,76.60
2018-02-12T16:09:13.085Z,77.10
2018-02-12T16:11:39.658Z,77.50
2018-02-12T16:14:06.398Z,76.90
2018-02-12T16:16:34.360Z,76.70
2018-02-12T16:19:00.916Z,76.60
2018-02-12T16:21:28.612Z,76.70
2018-02-12T16:23:55.511Z,76.40
2018-02-12T16:26:22.676Z,77.00
2018-02-12T16:28:48.969Z,77.10
2018-02-12T16:31:15.180Z,77.00
2018-02-12T16:33:41.564Z,76.90
2018-02-12T16:36:07.903Z,77.10
2018-02-12T16:38:34.315Z,77.30
2018-02-12T16:41:01.250Z,77.40
2018-02-12T16:43:28.366Z,77.50
2018-02-12T16:45:54.578Z,77.40
2018-02-12T16:48:21.147Z,77.30
2018-02-12T16:50:48.142Z,77.10
2018-02-12T16:53:14.550Z,77.10
2018-02-12T16:55:42.653Z,77.30
2018-02-12T16:58:09.686Z,77.90
2018-02-12T17:00:36.806Z,77.50
2018-02-12T17:03:03.810Z,77.60
2018-02-12T17:05:30.041Z,77.60
2018-02-12T17:07:56.286Z,77.30
2018-02-12T17:10:22.646Z,76.90
2018-02-12T17:12:49.169Z,77.10
2018-02-12T17:15:16.744Z,78.00
2018-02-12T17:17:43.699Z,78.10
2018-02-12T17:20:10.427Z,78.00
2018-02-12T17:22:37.474Z,78.30
2018-02-12T17:25:05.085Z,78.20
2018-02-12T17:27:31.899Z,78.10
2018-02-12T17:29:58.481Z,78.10
2018-02-12T17:32:26.493Z,77.70
2018-02-12T17:34:52.832Z,77.60
2018-02-12T17:37:19.595Z,78.00
2018-02-12T17:39:45.830Z,78.00
2018-02-12T17:42:12.198Z,78.00
2018-02-12T17:44:38.409Z,78.60
2018-02-12T17:47:05.143Z,78.40
2018-02-12T17:49:32.295Z,78.10
2018-02-12T17:51:59.296Z,78.20
2018-02-12T17:54:26.354Z,79.00
2018-02-12T17:56:52.558Z,78.40
2018-02-12T17:59:20.024Z,78.40
2018-02-12T18:01:46.763Z,78.30
2018-02-12T18:04:13.508Z,78.00
2018-02-12T18:06:39.730Z,78.20
2018-02-12T18:09:06.211Z,78.00
2018-02-12T18:11:33.036Z,78.10
2018-02-12T18:14:00.700Z,77.60
2018-02-12T18:16:27.123Z,77.60
2018-02-12T18:18:53.327Z,77.40
2018-02-12T18:21:19.607Z,78.30
2018-02-12T18:23:46.470Z,77.70
2018-02-12T18:26:13.427Z,77.40
2018-02-12T18:28:40.758Z,77.40
2018-02-12T18:31:07.042Z,77.40
2018-02-12T18:33:33.245Z,77.50
2018-02-12T18:36:00.153Z,77.50
2018-02-12T18:38:26.362Z,77.40
2018-02-12T18:40:53.540Z,77.80
2018-02-12T18:43:21.604Z,78.10
2018-02-12T18:45:48.620Z,78.00
2018-02-12T18:48:15.286Z,78.20
2018-02-12T18:50:43.291Z,78.20
2018-02-12T18:53:10.147Z,78.40
2018-02-12T18:55:36.600Z,78.40
2018-02-12T18:58:03.295Z,78.20
2018-02-12T19:00:31.072Z,83.60
2018-02-12T19:02:58.125Z,80.80
2018-02-12T19:05:24.541Z,80.70
2018-02-12T19:07:51.227Z,79.60
2018-02-12T19:10:17.606Z,79.40
2018-02-12T19:12:44.742Z,79.30
2018-02-12T19:15:11.676Z,79.20
2018-02-12T19:17:38.289Z,78.90
2018-02-12T19:20:04.795Z,78.70
2018-02-12T19:22:31.551Z,79.20
2018-02-12T19:24:57.942Z,80.00
2018-02-12T19:27:24.951Z,79.20
2018-02-12T19:29:52.187Z,79.20
2018-02-12T19:32:19.520Z,78.90
2018-02-12T19:34:45.752Z,79.30
2018-02-12T19:37:12.207Z,79.10
2018-02-12T19:39:38.585Z,79.40
2018-02-12T19:42:05.646Z,79.70
2018-02-12T19:44:31.872Z,79.70
2018-02-12T19:46:58.275Z,80.10
2018-02-12T19:49:25.445Z,79.50
2018-02-12T19:51:52.237Z,80.00
2018-02-12T19:54:19.778Z,80.30
2018-02-12T19:56:46.816Z,79.80
2018-02-12T19:59:13.720Z,80.20
2018-02-12T20:01:43.427Z,80.20
2018-02-12T20:09:56.369Z,80.20
2018-02-12T20:27:00.195Z,80.30
2018-02-12T20:29:26.702Z,80.30
2018-02-12T20:32:01.598Z,79.40
2018-02-12T20:34:28.184Z,79.40
2018-02-12T20:36:58.549Z,79.10
2018-02-12T20:39:25.012Z,79.00
2018-02-12T20:41:51.580Z,79.70
2018-02-12T20:44:17.886Z,79.90
2018-02-12T20:46:44.749Z,80.20
2018-02-12T20:49:31.480Z,79.70
2018-02-12T20:54:50.884Z,80.20
2018-02-12T20:57:17.261Z,80.00
2018-02-12T20:59:44.498Z,79.50
2018-02-12T21:02:11.662Z,79.00
2018-02-12T21:04:37.942Z,79.60
2018-02-12T21:07:04.238Z,78.90
2018-02-12T21:09:31.260Z,79.00
2018-02-12T21:11:57.497Z,78.90
2018-02-12T21:14:28.832Z,79.50
2018-02-12T21:16:56.016Z,78.80
2018-02-12T21:19:22.988Z,79.30
2018-02-12T21:21:49.268Z,79.70
2018-02-12T21:24:16.501Z,80.00
2018-02-12T21:26:42.795Z,79.50
2018-02-12T21:29:09.100Z,79.10
2018-02-12T21:31:36.124Z,78.90
2018-02-12T21:34:02.412Z,78.90
2018-02-12T21:36:30.359Z,79.00
2018-02-12T21:38:57.515Z,79.60
2018-02-12T21:41:24.445Z,79.30
2018-02-12T21:43:51.457Z,79.30
2018-02-12T21:46:18.509Z,79.20
2018-02-12T21:48:45.023Z,79.30
2018-02-12T21:51:12.187Z,79.10
2018-02-12T21:53:39.557Z,79.10
2018-02-12T21:56:06.654Z,79.20
2018-02-12T21:58:33.480Z,79.10
2018-02-12T22:01:00.350Z,78.90
2018-02-12T22:03:26.622Z,79.00
2018-02-12T22:05:53.845Z,79.60
2018-02-12T22:08:20.624Z,79.60
2018-02-12T22:10:47.739Z,79.60
2018-02-12T22:13:14.817Z,79.60
2018-02-12T22:15:41.658Z,79.80
2018-02-12T22:18:09.749Z,79.80
2018-02-12T22:20:36.544Z,79.80
2018-02-12T22:23:02.918Z,80.20
2018-02-12T22:25:29.803Z,80.60
2018-02-12T22:27:56.169Z,80.30
2018-02-12T22:30:23.774Z,80.40
2018-02-12T22:42:36.385Z,80.30
2018-02-12T22:45:03.291Z,80.70
2018-02-12T22:47:41.675Z,81.40
2018-02-12T22:50:08.394Z,81.40
2018-02-12T22:52:35.187Z,81.30
2018-02-12T22:55:02.748Z,81.50
2018-02-12T22:57:30.424Z,81.50
2018-02-12T22:59:57.087Z,81.50
2018-02-12T23:02:24.561Z,81.30
2018-02-12T23:04:51.518Z,81.40
2018-02-12T23:07:19.288Z,81.40
2018-02-12T23:09:46.952Z,81.00
2018-02-12T23:12:14.220Z,80.90
2018-02-12T23:14:40.441Z,81.20
2018-02-12T23:17:10.860Z,81.50
2018-02-12T23:19:39.586Z,81.10
2018-02-12T23:22:06.287Z,80.50
